Time;durP1;ratioP1;P1;durP2;ratioP2;P2;SDS_P1;SDS_P2;PMS_P1;PMS_P2;Temp;Humidity;BMP_temperature;BMP_pressure;BME280_temperature;BME280_humidity;BME280_pressure;Samples;Min_cycle;Max_cycle;Signal;HPM_P1;HPM_P2
2022/11/19 00:01:27;;;;;;;10.88;6.60;;;;;;;;;;5079513;28;20071;-74
2022/11/19 00:03:56;;;;;;;11.40;6.87;;;;;;;;;;5079269;28;20127;-74
2022/11/19 00:06:25;;;;;;;11.43;6.10;;;;;;;;;;5079399;28;20040;-75
2022/11/19 00:08:53;;;;;;;14.07;6.50;;;;;;;;;;5078903;28;20414;-74
2022/11/19 00:14:08;;;;;;;11.17;6.70;;;;;;;;;;5078586;28;20373;-75
2022/11/19 00:16:36;;;;;;;12.47;7.30;;;;;;;;;;5061924;28;20038;-75
2022/11/19 00:19:04;;;;;;;12.53;6.73;;;;;;;;;;5078665;28;20080;-74
2022/11/19 00:21:33;;;;;;;10.60;7.00;;;;;;;;;;5095643;28;20064;-73
2022/11/19 00:24:01;;;;;;;10.40;6.77;;;;;;;;;;5061648;28;20039;-75
2022/11/19 00:26:30;;;;;;;10.33;6.80;;;;;;;;;;5112540;28;20063;-74
2022/11/19 00:28:56;;;;;;;11.57;6.43;;;;;;;;;;5078413;28;20051;-73
2022/11/19 00:31:26;;;;;;;10.50;6.57;;;;;;;;;;5095247;28;20077;-74
2022/11/19 00:33:57;;;;;;;9.02;6.35;;;;;;;;;;5078614;28;20032;-74
2022/11/19 00:36:24;;;;;;;12.90;7.07;;;;;;;;;;5062053;28;20473;-75
2022/11/19 00:38:53;;;;;;;13.17;6.60;;;;;;;;;;5094123;28;20276;-76
2022/11/19 00:41:21;;;;;;;11.20;6.47;;;;;;;;;;5093468;28;20040;-76
2022/11/19 00:43:58;;;;;;;10.67;6.63;;;;;;;;;;5061645;28;20032;-76
2022/11/19 00:46:46;;;;;;;10.27;6.40;;;;;;;;;;5078497;28;20456;-77
2022/11/19 00:49:33;;;;;;;10.57;6.50;;;;;;;;;;5094787;28;20058;-77
2022/11/19 00:52:03;;;;;;;12.87;7.10;;;;;;;;;;5112594;28;20461;-77
2022/11/19 00:54:36;;;;;;;12.37;7.27;;;;;;;;;;5078396;28;20056;-76
2022/11/19 00:57:10;;;;;;;14.07;6.93;;;;;;;;;;5111496;28;20510;-75
2022/11/19 00:59:37;;;;;;;11.37;6.80;;;;;;;;;;5061491;28;20027;-78
2022/11/19 01:02:08;;;;;;;12.73;6.73;;;;;;;;;;5111825;28;20050;-80
2022/11/19 01:04:36;;;;;;;12.93;7.27;;;;;;;;;;5059434;28;20052;-73
2022/11/19 01:07:03;;;;;;;11.53;6.80;;;;;;;;;;5076714;28;20039;-75
2022/11/19 01:09:55;;;;;;;11.47;7.00;;;;;;;;;;5076983;28;20124;-73
2022/11/19 01:15:37;;;;;;;10.70;6.37;;;;;;;;;;5077250;28;20038;-73
2022/11/19 01:18:03;;;;;;;10.87;6.10;;;;;;;;;;5077973;28;20043;-74
2022/11/19 01:20:30;;;;;;;11.67;6.30;;;;;;;;;;5077971;28;20123;-74
2022/11/19 01:22:55;;;;;;;9.43;6.30;;;;;;;;;;5061359;28;20135;-74
2022/11/19 01:25:24;;;;;;;13.07;6.23;;;;;;;;;;5095224;28;20036;-76
2022/11/19 01:27:56;;;;;;;11.00;6.10;;;;;;;;;;5118845;28;20120;-75
2022/11/19 01:30:23;;;;;;;12.63;7.40;;;;;;;;;;5073569;28;20163;-76
2022/11/19 01:32:53;;;;;;;14.77;6.90;;;;;;;;;;5092790;28;20036;-76
2022/11/19 01:35:23;;;;;;;11.50;6.80;;;;;;;;;;5074207;28;20044;-76
2022/11/19 01:37:54;;;;;;;12.25;7.20;;;;;;;;;;5057023;28;20394;-77
2022/11/19 01:40:26;;;;;;;10.82;6.47;;;;;;;;;;5058134;28;20047;-77
2022/11/19 01:42:55;;;;;;;10.93;6.73;;;;;;;;;;5074723;28;20044;-76
2022/11/19 01:45:39;;;;;;;14.03;7.07;;;;;;;;;;5056697;28;20055;-76
2022/11/19 01:48:10;;;;;;;13.03;6.87;;;;;;;;;;5091982;28;20047;-78
2022/11/19 01:50:57;;;;;;;15.57;7.30;;;;;;;;;;5074500;28;20036;-66
2022/11/19 01:53:26;;;;;;;9.87;6.10;;;;;;;;;;5074004;28;20036;-67
2022/11/19 01:55:52;;;;;;;11.97;7.10;;;;;;;;;;5057177;28;20470;-69
2022/11/19 01:58:22;;;;;;;13.33;6.43;;;;;;;;;;5037448;28;20059;-73
2022/11/19 02:01:18;;;;;;;11.23;7.17;;;;;;;;;;5071596;28;20460;-76
2022/11/19 02:04:10;;;;;;;12.93;6.80;;;;;;;;;;5053786;28;20544;-77
2022/11/19 02:06:49;;;;;;;12.87;6.87;;;;;;;;;;5071852;28;20037;-75
2022/11/19 02:09:28;;;;;;;11.27;6.67;;;;;;;;;;5071410;28;20470;-75
2022/11/19 02:12:08;;;;;;;10.25;6.60;;;;;;;;;;5069838;28;20052;-75
2022/11/19 02:15:56;;;;;;;12.47;6.73;;;;;;;;;;5060634;28;20036;-74
2022/11/19 02:18:35;;;;;;;12.17;6.93;;;;;;;;;;5070555;28;20037;-75
2022/11/19 02:21:06;;;;;;;12.13;6.90;;;;;;;;;;5052715;28;20032;-76
2022/11/19 02:23:50;;;;;;;11.73;6.57;;;;;;;;;;5034974;28;20025;-73
2022/11/19 02:26:42;;;;;;;12.53;6.70;;;;;;;;;;5049955;28;20020;-75
2022/11/19 02:29:23;;;;;;;11.50;6.50;;;;;;;;;;5048418;28;20055;-74
2022/11/19 02:31:49;;;;;;;;;;;;;;;;;;5056094;28;20040;-76
2022/11/19 02:34:17;;;;;;;13.97;6.47;;;;;;;;;;5073710;28;19918;-76
2022/11/19 02:36:54;;;;;;;11.70;6.63;;;;;;;;;;5060852;28;20381;-75
2022/11/19 02:39:40;;;;;;;10.37;6.60;;;;;;;;;;5061091;28;20044;-74
2022/11/19 02:42:05;;;;;;;14.00;7.67;;;;;;;;;;5059498;28;20044;-74
2022/11/19 02:47:35;;;;;;;12.87;6.67;;;;;;;;;;5075183;28;20472;-75
2022/11/19 02:50:06;;;;;;;13.97;7.17;;;;;;;;;;5058194;28;20484;-78
2022/11/19 02:52:32;;;;;;;13.38;7.32;;;;;;;;;;5058213;28;20436;-76
2022/11/19 02:54:58;;;;;;;12.87;6.80;;;;;;;;;;5058264;28;20146;-76
2022/11/19 02:57:24;;;;;;;14.30;7.53;;;;;;;;;;5058193;28;20529;-75
2022/11/19 03:05:39;;;;;;;11.67;6.73;;;;;;;;;;5076809;28;20448;-73
2022/11/19 03:08:06;;;;;;;15.80;7.90;;;;;;;;;;5060302;28;20051;-73
2022/11/19 03:10:44;;;;;;;14.53;7.73;;;;;;;;;;5060310;28;20028;-73
2022/11/19 03:19:24;;;;;;;14.30;7.37;;;;;;;;;;5092464;28;20093;-76
2022/11/19 03:22:12;;;;;;;16.20;8.40;;;;;;;;;;5076707;28;20040;-75
2022/11/19 03:25:04;;;;;;;13.93;7.60;;;;;;;;;;5091676;28;20035;-75
2022/11/19 03:28:15;;;;;;;15.33;7.97;;;;;;;;;;5093225;28;20048;-75
2022/11/19 03:30:43;;;;;;;19.50;8.40;;;;;;;;;;5076400;28;20440;-73
2022/11/19 03:33:19;;;;;;;13.33;7.43;;;;;;;;;;5058942;28;20465;-74
2022/11/19 03:36:07;;;;;;;21.17;8.23;;;;;;;;;;5094005;28;20032;-74
2022/11/19 03:38:38;;;;;;;18.37;8.33;;;;;;;;;;5093242;28;20051;-73
2022/11/19 03:41:08;;;;;;;17.70;8.60;;;;;;;;;;5092620;28;20046;-75
2022/11/19 03:43:43;;;;;;;15.77;8.00;;;;;;;;;;5092419;28;20036;-74
2022/11/19 03:46:14;;;;;;;18.63;8.00;;;;;;;;;;5092709;28;20469;-74
2022/11/19 03:48:44;;;;;;;19.40;8.23;;;;;;;;;;5092601;28;20062;-73
2022/11/19 03:51:10;;;;;;;;;;;;;;;;;;5059329;28;20082;-74
2022/11/19 03:53:36;;;;;;;14.10;7.73;;;;;;;;;;5075600;28;20345;-74
2022/11/19 03:56:08;;;;;;;14.00;7.80;;;;;;;;;;5075554;28;20066;-74
2022/11/19 03:58:37;;;;;;;17.27;8.07;;;;;;;;;;5075634;28;20052;-73
2022/11/19 04:01:04;;;;;;;19.63;7.57;;;;;;;;;;5075346;28;20047;-73
2022/11/19 04:03:35;;;;;;;14.23;7.70;;;;;;;;;;5092217;28;20104;-73
2022/11/19 04:06:01;;;;;;;13.77;7.70;;;;;;;;;;5058806;28;20040;-75
2022/11/19 04:08:56;;;;;;;14.17;7.27;;;;;;;;;;5079680;28;20070;-75
2022/11/19 04:11:24;;;;;;;18.33;8.27;;;;;;;;;;5059612;28;20054;-74
2022/11/19 04:13:55;;;;;;;16.50;8.37;;;;;;;;;;5058524;28;20081;-75
2022/11/19 04:16:23;;;;;;;14.50;7.50;;;;;;;;;;5091773;28;20135;-66
2022/11/19 04:18:50;;;;;;;14.53;7.50;;;;;;;;;;5058767;28;20374;-67
2022/11/19 04:21:17;;;;;;;13.57;8.00;;;;;;;;;;5061550;28;20032;-62
2022/11/19 04:23:43;;;;;;;15.40;8.03;;;;;;;;;;5058795;28;20047;-64
2022/11/19 04:26:08;;;;;;;15.37;7.47;;;;;;;;;;5058361;28;20032;-66
2022/11/19 04:28:34;;;;;;;16.90;8.47;;;;;;;;;;5058274;28;20101;-68
2022/11/19 04:31:00;;;;;;;17.30;7.80;;;;;;;;;;5058336;28;20047;-67
2022/11/19 04:33:26;;;;;;;15.53;8.17;;;;;;;;;;5058506;28;20040;-65
2022/11/19 04:35:51;;;;;;;15.07;7.63;;;;;;;;;;5058177;28;20036;-65
2022/11/19 04:38:17;;;;;;;17.20;7.57;;;;;;;;;;5058194;28;20032;-65
2022/11/19 04:40:43;;;;;;;15.20;6.90;;;;;;;;;;5058000;28;20035;-66
2022/11/19 04:43:09;;;;;;;9.70;6.47;;;;;;;;;;5074631;28;20031;-66
2022/11/19 04:45:35;;;;;;;17.10;7.07;;;;;;;;;;5058147;28;20035;-64
2022/11/19 04:48:01;;;;;;;18.57;8.30;;;;;;;;;;5058026;28;20036;-64
2022/11/19 04:50:27;;;;;;;17.50;7.93;;;;;;;;;;5057243;28;20032;-64
2022/11/19 04:52:53;;;;;;;14.43;7.40;;;;;;;;;;5057699;28;20043;-65
2022/11/19 04:55:18;;;;;;;12.10;7.20;;;;;;;;;;5057521;28;20389;-66
2022/11/19 04:57:44;;;;;;;13.50;7.43;;;;;;;;;;5057441;28;20067;-64
2022/11/19 05:00:10;;;;;;;12.60;7.17;;;;;;;;;;5074659;28;20097;-66
2022/11/19 05:02:35;;;;;;;16.90;7.10;;;;;;;;;;5074666;28;20489;-65
2022/11/19 05:05:01;;;;;;;16.93;7.50;;;;;;;;;;5058018;28;20027;-65
2022/11/19 05:07:27;;;;;;;19.83;7.93;;;;;;;;;;5057653;28;20477;-65
2022/11/19 05:09:52;;;;;;;17.13;7.67;;;;;;;;;;5074515;28;20040;-65
2022/11/19 05:12:18;;;;;;;13.30;7.67;;;;;;;;;;5057911;28;20046;-65
2022/11/19 05:14:44;;;;;;;18.90;7.33;;;;;;;;;;5074418;28;20046;-65
2022/11/19 05:17:10;;;;;;;14.80;7.77;;;;;;;;;;5057635;28;20040;-66
2022/11/19 05:19:35;;;;;;;14.60;7.77;;;;;;;;;;5058186;28;20127;-65
2022/11/19 05:22:01;;;;;;;14.03;7.70;;;;;;;;;;5058055;28;20404;-66
2022/11/19 05:24:26;;;;;;;15.07;8.10;;;;;;;;;;5057580;28;20058;-65
2022/11/19 05:26:52;;;;;;;15.63;8.47;;;;;;;;;;5057503;28;20147;-66
2022/11/19 05:29:18;;;;;;;15.40;8.30;;;;;;;;;;5057543;28;20378;-65
2022/11/19 05:31:43;;;;;;;17.00;8.27;;;;;;;;;;5074311;28;20067;-66
2022/11/19 05:34:09;;;;;;;18.03;8.13;;;;;;;;;;5057411;28;20488;-66
2022/11/19 05:36:35;;;;;;;15.70;8.43;;;;;;;;;;5074000;28;20048;-66
2022/11/19 05:39:01;;;;;;;16.83;7.97;;;;;;;;;;5057509;28;20495;-66
2022/11/19 05:41:26;;;;;;;17.00;8.00;;;;;;;;;;5057389;28;20040;-65
2022/11/19 05:43:52;;;;;;;15.63;7.90;;;;;;;;;;5057582;28;20036;-66
2022/11/19 05:46:18;;;;;;;16.33;8.00;;;;;;;;;;5074003;28;20046;-66
2022/11/19 05:48:44;;;;;;;14.57;7.80;;;;;;;;;;5071554;28;20481;-65
2022/11/19 05:51:14;;;;;;;15.03;8.30;;;;;;;;;;5057299;28;20035;-67
2022/11/19 05:53:39;;;;;;;16.87;8.10;;;;;;;;;;5055808;28;20028;-66
2022/11/19 05:56:05;;;;;;;13.60;7.80;;;;;;;;;;5053397;28;20398;-66
2022/11/19 05:58:31;;;;;;;17.80;7.47;;;;;;;;;;5054441;28;20581;-67
2022/11/19 06:00:57;;;;;;;15.00;7.93;;;;;;;;;;5071572;28;20097;-66
2022/11/19 06:03:23;;;;;;;15.30;9.30;;;;;;;;;;5070624;28;20043;-67
2022/11/19 06:05:49;;;;;;;14.47;7.70;;;;;;;;;;5054852;28;20032;-66
2022/11/19 06:08:15;;;;;;;17.80;8.43;;;;;;;;;;5058395;28;20375;-66
2022/11/19 06:10:40;;;;;;;15.53;7.97;;;;;;;;;;5061032;28;20068;-66
2022/11/19 06:13:06;;;;;;;11.67;7.30;;;;;;;;;;5061117;28;20082;-66
2022/11/19 06:15:31;;;;;;;15.87;7.40;;;;;;;;;;5061372;28;20035;-66
2022/11/19 06:17:57;;;;;;;16.70;7.77;;;;;;;;;;5061162;28;20032;-66
2022/11/19 06:20:23;;;;;;;12.33;7.90;;;;;;;;;;5061060;28;20032;-66
2022/11/19 06:22:50;;;;;;;16.03;8.43;;;;;;;;;;5061016;28;20489;-66
2022/11/19 06:25:16;;;;;;;17.27;8.83;;;;;;;;;;5094582;28;20151;-66
2022/11/19 06:27:42;;;;;;;14.63;8.13;;;;;;;;;;5060726;28;20522;-66
2022/11/19 06:30:08;;;;;;;13.90;9.17;;;;;;;;;;5060924;28;20434;-66
2022/11/19 06:32:33;;;;;;;16.03;9.57;;;;;;;;;;5061170;28;20031;-66
2022/11/19 06:34:59;;;;;;;16.43;9.33;;;;;;;;;;5060742;28;20039;-66
2022/11/19 06:37:25;;;;;;;15.73;9.33;;;;;;;;;;5060844;28;20036;-66
2022/11/19 06:39:50;;;;;;;18.80;9.87;;;;;;;;;;5060666;28;20032;-66
2022/11/19 06:45:04;;;;;;;20.33;9.83;;;;;;;;;;5077142;28;20130;-66
2022/11/19 06:47:31;;;;;;;22.20;10.70;;;;;;;;;;5060452;28;20068;-67
2022/11/19 06:49:57;;;;;;;17.27;9.90;;;;;;;;;;5060522;28;20028;-66
2022/11/19 06:52:22;;;;;;;21.77;11.10;;;;;;;;;;5060262;28;20047;-67
2022/11/19 06:54:48;;;;;;;20.20;10.97;;;;;;;;;;5060273;28;20382;-66
2022/11/19 06:57:14;;;;;;;19.37;10.97;;;;;;;;;;5059973;28;20063;-66
2022/11/19 06:59:40;;;;;;;26.43;11.43;;;;;;;;;;5060407;28;20450;-66
2022/11/19 07:02:06;;;;;;;19.70;10.67;;;;;;;;;;5077258;28;20036;-67
2022/11/19 07:04:32;;;;;;;20.77;9.87;;;;;;;;;;5076999;28;20382;-67
2022/11/19 07:06:58;;;;;;;19.33;10.33;;;;;;;;;;5060098;28;20044;-66
2022/11/19 07:09:23;;;;;;;16.80;10.10;;;;;;;;;;5060058;28;20059;-66
2022/11/19 07:11:49;;;;;;;16.47;11.13;;;;;;;;;;5059974;28;20515;-66
2022/11/19 07:14:14;;;;;;;16.63;8.57;;;;;;;;;;5060031;28;20177;-66
2022/11/19 07:16:40;;;;;;;13.07;8.60;;;;;;;;;;5076726;28;20040;-66
2022/11/19 07:19:06;;;;;;;16.00;9.03;;;;;;;;;;5059414;28;20351;-66
2022/11/19 07:21:32;;;;;;;14.70;8.57;;;;;;;;;;5076594;28;20032;-66
2022/11/19 07:23:58;;;;;;;18.40;9.10;;;;;;;;;;5076917;28;20043;-66
2022/11/19 07:26:24;;;;;;;12.83;7.63;;;;;;;;;;5059701;28;20079;-66
2022/11/19 07:28:50;;;;;;;16.30;8.80;;;;;;;;;;5059578;28;20140;-66
2022/11/19 07:31:16;;;;;;;20.07;9.50;;;;;;;;;;5059530;28;20031;-66
2022/11/19 07:33:42;;;;;;;18.97;8.20;;;;;;;;;;5059609;28;20031;-66
2022/11/19 07:36:09;;;;;;;17.77;9.47;;;;;;;;;;5059879;28;20394;-67
2022/11/19 07:38:35;;;;;;;16.37;8.37;;;;;;;;;;5059501;28;20036;-66
2022/11/19 07:41:01;;;;;;;18.60;8.13;;;;;;;;;;5075960;28;20040;-66
2022/11/19 07:43:27;;;;;;;17.57;8.50;;;;;;;;;;5059423;28;20059;-66
2022/11/19 07:45:52;;;;;;;12.87;7.33;;;;;;;;;;5076007;28;20486;-66
2022/11/19 07:48:18;;;;;;;12.90;7.87;;;;;;;;;;5059260;28;20452;-66
2022/11/19 07:50:48;;;;;;;19.63;8.63;;;;;;;;;;5058810;28;20039;-67
2022/11/19 07:53:14;;;;;;;14.90;7.45;;;;;;;;;;5047064;28;20028;-66
2022/11/19 07:55:39;;;;;;;11.77;6.77;;;;;;;;;;5048245;28;20051;-67
2022/11/19 07:58:05;;;;;;;15.47;7.40;;;;;;;;;;5065078;28;20049;-66
2022/11/19 08:00:30;;;;;;;12.63;6.57;;;;;;;;;;5080011;28;20028;-66
2022/11/19 08:02:56;;;;;;;15.83;7.20;;;;;;;;;;5072948;28;20040;-66
2022/11/19 08:05:22;;;;;;;12.93;6.70;;;;;;;;;;5066712;28;20024;-66
2022/11/19 08:07:49;;;;;;;11.07;6.70;;;;;;;;;;5050839;28;20027;-67
2022/11/19 08:10:15;;;;;;;12.77;6.77;;;;;;;;;;5079289;28;20035;-66
2022/11/19 08:13:01;;;;;;;12.97;6.57;;;;;;;;;;5048783;28;20039;-66
2022/11/19 08:15:26;;;;;;;13.70;7.10;;;;;;;;;;5063195;28;20459;-66
2022/11/19 08:20:37;;;;;;;11.37;6.67;;;;;;;;;;5095522;28;20039;-67
2022/11/19 08:23:03;;;;;;;10.10;6.20;;;;;;;;;;5064936;28;20036;-67
2022/11/19 08:25:29;;;;;;;11.23;6.37;;;;;;;;;;5046719;28;20044;-66
2022/11/19 08:27:54;;;;;;;14.60;8.30;;;;;;;;;;5049458;28;20051;-65
2022/11/19 08:30:20;;;;;;;14.23;6.50;;;;;;;;;;5061568;28;20028;-65
2022/11/19 08:32:46;;;;;;;15.70;7.23;;;;;;;;;;5047896;28;20707;-66
2022/11/19 08:35:11;;;;;;;14.40;7.03;;;;;;;;;;5063739;28;20129;-66
2022/11/19 08:37:37;;;;;;;16.27;7.30;;;;;;;;;;5046608;28;20466;-65
2022/11/19 08:40:03;;;;;;;13.80;7.57;;;;;;;;;;5047993;28;20060;-65
2022/11/19 08:45:12;;;;;;;13.80;7.77;;;;;;;;;;5086837;28;20475;-65
2022/11/19 08:47:38;;;;;;;15.23;7.97;;;;;;;;;;5064527;28;20055;-65
2022/11/19 08:50:04;;;;;;;13.23;6.83;;;;;;;;;;5054002;28;20504;-65
2022/11/19 08:52:30;;;;;;;15.37;7.53;;;;;;;;;;5055193;28;20020;-65
2022/11/19 08:54:55;;;;;;;10.97;7.07;;;;;;;;;;5063926;28;20478;-65
2022/11/19 08:57:21;;;;;;;12.07;7.30;;;;;;;;;;5053662;28;20489;-65
2022/11/19 08:59:48;;;;;;;13.50;7.30;;;;;;;;;;5055681;28;20048;-65
2022/11/19 09:02:14;;;;;;;16.60;7.57;;;;;;;;;;5060078;28;20036;-66
2022/11/19 09:04:40;;;;;;;13.60;7.67;;;;;;;;;;5047826;28;20477;-65
2022/11/19 09:07:06;;;;;;;15.27;7.60;;;;;;;;;;5072551;28;20024;-65
2022/11/19 09:09:31;;;;;;;15.50;8.00;;;;;;;;;;5059623;28;20040;-65
2022/11/19 09:12:04;;;;;;;14.33;8.03;;;;;;;;;;5065395;28;20036;-65
2022/11/19 09:14:30;;;;;;;17.07;8.93;;;;;;;;;;5046012;28;20028;-65
2022/11/19 09:16:56;;;;;;;14.30;7.77;;;;;;;;;;5048871;28;20546;-64
2022/11/19 09:19:21;;;;;;;15.93;8.10;;;;;;;;;;5063699;28;20032;-67
2022/11/19 09:21:47;;;;;;;15.17;8.47;;;;;;;;;;5062332;28;20097;-65
2022/11/19 09:24:13;;;;;;;17.17;9.33;;;;;;;;;;5065571;28;20118;-65
2022/11/19 09:26:38;;;;;;;16.47;8.63;;;;;;;;;;5064003;28;20024;-65
2022/11/19 09:29:04;;;;;;;13.33;7.17;;;;;;;;;;5053252;28;20504;-65
2022/11/19 09:31:30;;;;;;;11.60;7.10;;;;;;;;;;5055013;28;20447;-65
2022/11/19 09:33:55;;;;;;;12.07;7.37;;;;;;;;;;5059813;28;20059;-65
2022/11/19 09:36:21;;;;;;;10.47;6.70;;;;;;;;;;5047401;28;20478;-65
2022/11/19 09:38:47;;;;;;;10.03;6.73;;;;;;;;;;5045534;28;20020;-65
2022/11/19 09:41:16;;;;;;;11.90;7.10;;;;;;;;;;5062827;28;20121;-65
2022/11/19 09:43:44;;;;;;;11.83;7.17;;;;;;;;;;5067781;28;20036;-65
2022/11/19 09:46:13;;;;;;;11.00;6.80;;;;;;;;;;5049979;28;20090;-65
2022/11/19 09:48:39;;;;;;;11.40;6.43;;;;;;;;;;5061982;28;20048;-65
2022/11/19 09:51:16;;;;;;;10.83;6.87;;;;;;;;;;5041291;28;20056;-65
2022/11/19 09:53:45;;;;;;;14.83;7.03;;;;;;;;;;5041509;28;20032;-66
2022/11/19 09:56:14;;;;;;;8.60;5.50;;;;;;;;;;5058051;28;20103;-67
2022/11/19 09:58:44;;;;;;;13.53;6.67;;;;;;;;;;5041301;28;20052;-68
2022/11/19 10:01:13;;;;;;;10.40;6.27;;;;;;;;;;5057870;28;20185;-68
2022/11/19 10:03:40;;;;;;;11.40;6.40;;;;;;;;;;5041386;28;20139;-68
2022/11/19 10:06:14;;;;;;;18.77;6.83;;;;;;;;;;5040972;28;20436;-69
2022/11/19 10:09:15;;;;;;;12.20;6.93;;;;;;;;;;5041301;28;20051;-68
2022/11/19 10:11:41;;;;;;;;;;;;;;;;;;4968227;28;20033;-69
2022/11/19 10:14:25;;;;;;;12.13;6.17;;;;;;;;;;5048958;28;19915;-69
2022/11/19 10:17:03;;;;;;;10.60;6.00;;;;;;;;;;5079501;28;20508;-68
2022/11/19 10:19:48;;;;;;;11.67;6.73;;;;;;;;;;5063810;28;20028;-68
2022/11/19 10:22:14;;;;;;;11.97;6.53;;;;;;;;;;5066581;28;20032;-68
2022/11/19 10:24:44;;;;;;;16.20;7.93;;;;;;;;;;5052753;28;20039;-68
2022/11/19 10:27:25;;;;;;;13.50;6.80;;;;;;;;;;5056241;28;20064;-69
2022/11/19 10:29:50;;;;;;;;;;;;;;;;;;5081229;28;20051;-68
2022/11/19 10:32:25;;;;;;;11.97;6.10;;;;;;;;;;5050349;28;19908;-68
2022/11/19 10:34:53;;;;;;;11.10;7.03;;;;;;;;;;5055896;28;20393;-68
2022/11/19 10:37:21;;;;;;;10.30;6.60;;;;;;;;;;5050271;28;20024;-68
2022/11/19 10:39:48;;;;;;;9.50;5.90;;;;;;;;;;5066138;28;20026;-68
2022/11/19 10:42:16;;;;;;;13.40;6.93;;;;;;;;;;5073246;28;20059;-68
2022/11/19 10:44:52;;;;;;;13.03;6.60;;;;;;;;;;5049996;28;20036;-69
2022/11/19 10:47:21;;;;;;;17.90;7.97;;;;;;;;;;5081557;28;20458;-69
2022/11/19 10:49:50;;;;;;;15.93;8.90;;;;;;;;;;5048944;28;20085;-68
2022/11/19 10:52:25;;;;;;;11.83;7.73;;;;;;;;;;5049996;28;20024;-68
2022/11/19 10:54:52;;;;;;;11.17;7.30;;;;;;;;;;5059657;28;20032;-66
2022/11/19 10:57:18;;;;;;;16.13;6.63;;;;;;;;;;5079452;28;20105;-67
2022/11/19 10:59:45;;;;;;;14.93;6.53;;;;;;;;;;5053399;28;20032;-67
2022/11/19 11:02:20;;;;;;;9.07;6.10;;;;;;;;;;5062842;28;20032;-67
2022/11/19 11:04:59;;;;;;;13.27;6.30;;;;;;;;;;5063755;28;20038;-67
2022/11/19 11:07:43;;;;;;;14.17;6.20;;;;;;;;;;5061945;28;20028;-67
2022/11/19 11:10:28;;;;;;;11.07;6.03;;;;;;;;;;5056728;28;20043;-67
2022/11/19 11:16:10;;;;;;;13.23;7.07;;;;;;;;;;5022480;28;20029;-66
2022/11/19 11:18:39;;;;;;;10.13;6.37;;;;;;;;;;5009958;28;20042;-67
2022/11/19 11:21:06;;;;;;;11.60;6.30;;;;;;;;;;5050638;28;20139;-67
2022/11/19 11:23:32;;;;;;;14.27;7.03;;;;;;;;;;5049663;28;20128;-67
2022/11/19 11:26:00;;;;;;;9.43;6.70;;;;;;;;;;5047994;28;20043;-68
2022/11/19 11:28:26;;;;;;;12.53;7.27;;;;;;;;;;5050644;28;20040;-67
2022/11/19 11:30:55;;;;;;;11.43;6.80;;;;;;;;;;5063379;28;20028;-68
2022/11/19 11:33:23;;;;;;;11.13;6.90;;;;;;;;;;5055713;28;20035;-67
2022/11/19 11:35:50;;;;;;;10.23;6.63;;;;;;;;;;5047184;28;20569;-67
2022/11/19 11:38:18;;;;;;;9.03;6.37;;;;;;;;;;5057361;28;20358;-67
2022/11/19 11:40:56;;;;;;;10.33;5.30;;;;;;;;;;5061702;28;20024;-67
2022/11/19 11:43:22;;;;;;;10.23;5.60;;;;;;;;;;5062988;28;20031;-68
2022/11/19 11:45:54;;;;;;;10.10;6.27;;;;;;;;;;5062107;28;20055;-68
2022/11/19 11:48:20;;;;;;;11.23;7.60;;;;;;;;;;5047595;28;20047;-67
2022/11/19 11:50:46;;;;;;;14.40;8.10;;;;;;;;;;5047267;28;20032;-67
2022/11/19 11:53:13;;;;;;;11.13;7.43;;;;;;;;;;5063027;28;20082;-67
2022/11/19 11:55:39;;;;;;;11.67;7.53;;;;;;;;;;5051289;28;20031;-67
2022/11/19 11:58:05;;;;;;;10.07;6.67;;;;;;;;;;5064788;28;20053;-67
2022/11/19 12:00:44;;;;;;;10.87;7.37;;;;;;;;;;5056845;28;20032;-67
2022/11/19 12:03:19;;;;;;;10.90;7.50;;;;;;;;;;5064644;28;20036;-67
2022/11/19 12:05:53;;;;;;;10.23;6.37;;;;;;;;;;5061379;28;20444;-68
2022/11/19 12:08:19;;;;;;;10.03;6.37;;;;;;;;;;5062282;28;20130;-67
2022/11/19 12:10:59;;;;;;;12.20;6.50;;;;;;;;;;5048459;28;20131;-67
2022/11/19 12:13:43;;;;;;;14.57;6.67;;;;;;;;;;5079090;28;20060;-67
2022/11/19 12:16:11;;;;;;;11.83;6.73;;;;;;;;;;5079170;28;20050;-67
2022/11/19 12:18:44;;;;;;;13.00;7.33;;;;;;;;;;5047471;28;20033;-67
2022/11/19 12:21:11;;;;;;;13.50;7.63;;;;;;;;;;5065898;28;20054;-68
2022/11/19 12:23:36;;;;;;;17.40;7.50;;;;;;;;;;5055634;28;20039;-67
2022/11/19 12:26:03;;;;;;;13.63;8.07;;;;;;;;;;5064651;28;20032;-67
2022/11/19 12:28:34;;;;;;;13.00;6.90;;;;;;;;;;5044521;28;21144;-67
2022/11/19 12:31:00;;;;;;;15.77;8.50;;;;;;;;;;5055276;28;20550;-67
2022/11/19 12:33:36;;;;;;;16.17;8.13;;;;;;;;;;5038420;28;20056;-66
2022/11/19 12:36:08;;;;;;;10.70;6.97;;;;;;;;;;5038551;28;20032;-68
2022/11/19 12:38:46;;;;;;;13.03;7.57;;;;;;;;;;5038513;28;20028;-67
2022/11/19 12:41:18;;;;;;;13.33;7.30;;;;;;;;;;5038588;28;20131;-67
2022/11/19 12:44:06;;;;;;;11.63;7.13;;;;;;;;;;5038734;28;20459;-67
2022/11/19 12:46:34;;;;;;;10.80;7.23;;;;;;;;;;5038381;28;20115;-67
2022/11/19 12:49:19;;;;;;;13.80;8.77;;;;;;;;;;5050490;28;20120;-67
2022/11/19 12:51:54;;;;;;;16.23;7.57;;;;;;;;;;5075201;28;20094;-67
2022/11/19 12:54:29;;;;;;;15.33;8.50;;;;;;;;;;5058119;28;20032;-67
2022/11/19 12:57:04;;;;;;;11.80;8.10;;;;;;;;;;5060637;28;20047;-66
2022/11/19 12:59:48;;;;;;;12.03;8.13;;;;;;;;;;5056654;28;20035;-75
2022/11/19 13:02:20;;;;;;;16.40;8.37;;;;;;;;;;5051042;28;20093;-67
2022/11/19 13:05:12;;;;;;;12.13;7.70;;;;;;;;;;5058438;28;20028;-67
2022/11/19 13:07:51;;;;;;;13.93;8.17;;;;;;;;;;5048626;28;20039;-67
2022/11/19 13:10:22;;;;;;;14.27;8.30;;;;;;;;;;5075526;28;20050;-67
2022/11/19 13:12:50;;;;;;;12.70;7.80;;;;;;;;;;5064859;28;20421;-67
2022/11/19 13:15:27;;;;;;;14.03;7.90;;;;;;;;;;5051013;28;20131;-67
2022/11/19 13:17:54;;;;;;;13.43;7.43;;;;;;;;;;5074240;28;20027;-68
2022/11/19 13:20:19;;;;;;;15.27;8.17;;;;;;;;;;5058534;28;20528;-67
2022/11/19 13:22:46;;;;;;;13.03;8.53;;;;;;;;;;5061227;28;20035;-67
2022/11/19 13:25:30;;;;;;;13.53;8.57;;;;;;;;;;5061391;28;20023;-67
2022/11/19 13:27:57;;;;;;;14.20;8.03;;;;;;;;;;5064526;28;20031;-67
2022/11/19 13:30:27;;;;;;;14.23;8.23;;;;;;;;;;5050864;28;20040;-67
2022/11/19 13:33:11;;;;;;;14.03;8.37;;;;;;;;;;5066017;28;20359;-67
2022/11/19 13:35:43;;;;;;;13.37;8.00;;;;;;;;;;5066918;28;20074;-67
2022/11/19 13:38:15;;;;;;;13.03;7.87;;;;;;;;;;5064235;28;20034;-67
2022/11/19 13:41:00;;;;;;;11.30;7.10;;;;;;;;;;5050471;28;20099;-67
2022/11/19 13:46:29;;;;;;;9.87;7.33;;;;;;;;;;5066902;28;20446;-68
2022/11/19 13:48:58;;;;;;;13.63;7.17;;;;;;;;;;5045148;28;20059;-67
2022/11/19 13:51:29;;;;;;;11.10;7.30;;;;;;;;;;5059996;28;20027;-68
2022/11/19 13:53:56;;;;;;;11.03;7.40;;;;;;;;;;5066960;28;20036;-67
2022/11/19 13:56:22;;;;;;;11.23;7.53;;;;;;;;;;5081860;28;20473;-67
2022/11/19 13:58:52;;;;;;;10.90;6.97;;;;;;;;;;5066004;28;20055;-66
2022/11/19 14:01:25;;;;;;;12.60;7.77;;;;;;;;;;5049281;28;20036;-68
2022/11/19 14:04:03;;;;;;;14.43;8.03;;;;;;;;;;5064993;28;20027;-69
2022/11/19 14:06:47;;;;;;;14.40;7.97;;;;;;;;;;5047282;28;20126;-67
2022/11/19 14:09:12;;;;;;;11.43;7.40;;;;;;;;;;5043272;28;20101;-67
2022/11/19 14:11:38;;;;;;;12.30;7.37;;;;;;;;;;5049581;28;20428;-67
2022/11/19 14:28:40;;;;;;;12.33;7.17;;;;;;;;;;5098067;28;20067;-68
2022/11/19 14:31:07;;;;;;;12.27;7.33;;;;;;;;;;5085587;28;20441;-67
2022/11/19 14:33:47;;;;;;;12.33;7.97;;;;;;;;;;5057192;28;20028;-68
2022/11/19 14:36:16;;;;;;;15.70;8.40;;;;;;;;;;5056831;28;20036;-68
2022/11/19 14:39:08;;;;;;;12.70;7.97;;;;;;;;;;5080603;28;20055;-68
2022/11/19 14:41:34;;;;;;;14.80;7.87;;;;;;;;;;5050969;28;20027;-69
2022/11/19 14:44:07;;;;;;;13.07;8.50;;;;;;;;;;5079887;28;20035;-68
2022/11/19 14:46:32;;;;;;;13.60;8.60;;;;;;;;;;5091860;28;20420;-68
2022/11/19 14:48:59;;;;;;;13.07;8.30;;;;;;;;;;5060359;28;20151;-68
2022/11/19 14:51:28;;;;;;;12.80;8.47;;;;;;;;;;5075920;28;20032;-67
2022/11/19 14:54:02;;;;;;;14.63;7.83;;;;;;;;;;5052948;28;20032;-67
2022/11/19 14:56:28;;;;;;;26.20;9.40;;;;;;;;;;5081930;28;20454;-66
2022/11/19 14:59:13;;;;;;;12.17;7.50;;;;;;;;;;5056352;28;20313;-67
2022/11/19 15:02:00;;;;;;;13.80;8.00;;;;;;;;;;5054095;28;20031;-66
2022/11/19 15:04:37;;;;;;;14.00;8.87;;;;;;;;;;5053932;28;20063;-66
2022/11/19 15:07:08;;;;;;;21.17;9.80;;;;;;;;;;5069870;28;20093;-67
2022/11/19 15:09:49;;;;;;;16.58;8.57;;;;;;;;;;5066464;28;20059;-68
2022/11/19 15:12:16;;;;;;;14.53;7.73;;;;;;;;;;5050446;28;20036;-68
2022/11/19 15:15:03;;;;;;;16.30;8.83;;;;;;;;;;5067987;28;20441;-67
2022/11/19 15:17:31;;;;;;;16.23;9.07;;;;;;;;;;5067303;28;20088;-67
2022/11/19 15:20:05;;;;;;;15.60;8.90;;;;;;;;;;5069159;28;20127;-66
2022/11/19 15:22:43;;;;;;;20.30;9.90;;;;;;;;;;5069845;28;20127;-68
2022/11/19 15:25:22;;;;;;;14.50;8.73;;;;;;;;;;5047616;28;20028;-68
2022/11/19 15:28:03;;;;;;;16.07;9.40;;;;;;;;;;5067122;28;20024;-68
2022/11/19 15:30:44;;;;;;;15.63;8.35;;;;;;;;;;5073042;28;20036;-67
2022/11/19 15:33:09;;;;;;;16.25;8.95;;;;;;;;;;5053045;28;20040;-66
2022/11/19 15:35:44;;;;;;;13.83;8.50;;;;;;;;;;5049951;28;20463;-67
2022/11/19 15:38:13;;;;;;;15.90;8.93;;;;;;;;;;5051613;28;20036;-67
2022/11/19 15:40:40;;;;;;;15.27;8.57;;;;;;;;;;5049262;28;20123;-67